The Vines Weather
The Vines, Western Australia
Language:  English
Updated23/05/2024 06:55 
 

METARS-Meteorological Aerodrome Reports

 

YPEA - Pearce (aus-Afb), Australia
Distance from station: N 11km
Updated: 23/05/2024 06:30
Clear
Clear
 Wind from NNE
Wind: NNE 6 km/h
Temperature: 11°C
Dew Point: -2°C
Humidity: 41%
Barometer: 1017 hPa
Clouds: Clear
Visibility: 10 km
2024/05/22 22:30 YPEA 222230Z AUTO 02003KT 9999 // NCD 11/M02 Q1017 RF00.0/000.0
YPPH - Perth Intl/Belmo, Australia
Distance from station: S 19km
Updated: 23/05/2024 06:30
Clear
Clear
 Wind from ENE
Wind: ENE 22 km/h
Temperature: 13°C
Dew Point: 0°C
Humidity: 41%
Barometer: 1018 hPa
Summary: Clear
Visibility: greater than 10 km
2024/05/22 22:30 YPPH 222230Z 06012KT CAVOK 13/00 Q1018
YPJT - Jandakot, Australia
Distance from station: SSW 39km
Updated: 23/05/2024 06:30
Clear
Clear
 Wind from E
Wind: E 6 km/h
Temperature: 5°C
Dew Point: 1°C
Humidity: 76%
Barometer: 1018 hPa
Clouds: Clear
Visibility: 10 km
2024/05/22 22:30 YPJT 222230Z AUTO 10003KT 9999 // NCD 05/01 Q1018 RF00.0/000.0
 
YBLN - Busselton, Australia
Distance from station: SSW 220km
Updated: 23/05/2024 06:30
Clear
Clear
 Wind from E
Wind: E 6 km/h
Temperature: 9°C
Dew Point: 9°C
Humidity: 100%
Barometer: 1018 hPa
Clouds: Clear
Visibility: 10 km
2024/05/22 22:30 YBLN 222230Z AUTO 10003KT 9999 // NCD 09/09 Q1018 RF00.0/000.0
YGEL - Geraldton, Australia
Distance from station: NNW 353km
Updated: 23/05/2024 06:30
Clear
Clear
 Wind from NE
Wind: NE 19 km/h
Temperature: 11°C
Dew Point: -5°C
Humidity: 32%
Barometer: 1016 hPa
Clouds: Clear
Visibility: 10 km
2024/05/22 22:30 YGEL 222230Z AUTO 04010KT 9999 // NCD 11/M05 Q1016 RF00.0/000.0
YPKG - Kalgoorlie/Bould, Australia
Distance from station: E 529km
Updated: 23/05/2024 06:30
Clear
Clear
 Wind from S
Wind: S 7 km/h
Temperature: 8°C
Wind Chill: 7°C
Dew Point: 0°C
Humidity: 57%
Barometer: 1021 hPa
Clouds: Clear
Visibility: 10 km
2024/05/22 22:30 YPKG 222230Z AUTO 18004KT 9999 // NCD 08/00 Q1021 RF00.0/000.0
 
YPLM - Learmouth, Australia
Distance from station: N 1077km
Updated: 23/05/2024 06:30
Clear
Clear
 Wind from WSW
Wind: WSW 6 km/h
Temperature: 14°C
Dew Point: 9°C
Humidity: 72%
Barometer: 1013 hPa
Clouds: Clear
Visibility: 10 km
2024/05/22 22:30 YPLM 222230Z AUTO 25003KT 9999 // NCD 14/09 Q1013 RF00.0/000.0
YFRT - Forrest, Australia
Distance from station: E 1155km
Updated: 23/05/2024 06:30
Clear
Clear
 Wind from ESE
Wind: ESE 11 km/h
Temperature: 9°C
Wind Chill: 7°C
Dew Point: 4°C
Humidity: 71%
Barometer: 1023 hPa
Clouds: Clear
Visibility: 10 km
2024/05/22 22:30 YFRT 222230Z AUTO 11006KT 9999 // NCD 09/04 Q1023 RF00.0/000.0
YPPD - Port Hedland Arr, Australia
Distance from station: NNE 1294km
Updated: 23/05/2024 06:30
Clear
Clear
 Wind from ESE
Wind: ESE 15 km/h
Temperature: 17°C
Dew Point: 0°C
Humidity: 32%
Barometer: 1014 hPa
Clouds: Clear
Visibility: 10 km
2024/05/22 22:30 YPPD 222230Z AUTO 12008KT 9999 // NCD 17/00 Q1014 RF00.0/000.0
 
YBRM - Broome Airport, Australia
Distance from station: WNW 12km
Updated: 23/05/2024 06:30
Clear
Clear
 Wind from E
Wind: E 7 km/h
Temperature: 15°C
Dew Point: 7°C
Humidity: 59%
Barometer: 1013 hPa
Clouds: Clear
Visibility: 10 km
2024/05/22 22:30 YBRM 222230Z AUTO 10004KT 9999 // NCD 15/07 Q1013 RF00.0/000.0
YCIN - Curtin/Derby, Australia
Distance from station: ENE 163km
Updated: 23/05/2024 06:30
Clear
Clear
 Wind from E
Wind: E 15 km/h
Temperature: 18°C
Dew Point: 4°C
Humidity: 40%
Barometer: 1013 hPa
Clouds: Clear
Visibility: 10 km
2024/05/22 22:30 YCIN 222230Z AUTO 08008KT 9999 // NCD 18/04 Q1013 RF00.0/000.0
YPKU - Kununurra Airpor, Australia
Distance from station: ENE 719km
Updated: 23/05/2024 06:30
Clear
Clear
 Wind from calm
Wind: Calm
Temperature: 16°C
Dew Point: 13°C
Humidity: 83%
Barometer: 1015 hPa
Clouds: Clear
Visibility: 10 km
2024/05/22 22:30 YPKU 222230Z AUTO 00000KT 9999 // NCD 16/13 Q1015 RF00.0/000.0
 
YPTN - Katherine/Tindal, Australia
Distance from station: ENE 1138km
Updated: 23/05/2024 06:30
Clear
Clear
 Wind from ESE
Wind: ESE 9 km/h
Temperature: 17°C
Dew Point: 12°C
Humidity: 73%
Barometer: 1015 hPa
Clouds: Clear
Visibility: 10 km
2024/05/22 22:30 YPTN 222230Z AUTO 11005KT 9999 // NCD 17/12 Q1015 RF00.0/000.0
YPDN - Darwin (civ/Mil), Australia
Distance from station: ENE 1105km
Updated: 23/05/2024 06:30
Clear
Clear
 Wind from ESE
Wind: ESE 11 km/h
Temperature: 23°C
Dew Point: 17°C
Humidity: 69%
Barometer: 1013 hPa
Summary: Clear
Visibility: greater than 10 km
2024/05/22 22:30 YPDN 222230Z 12006KT CAVOK 23/17 Q1013 SMOKE
YBAS - Alice Springs Ar, Australia
Distance from station: ESE 1364km
Updated: 23/05/2024 06:30
Clear
Clear
 Wind from W
Wind: W 7 km/h
Temperature: 5°C
Wind Chill: 3°C
Dew Point: 2°C
Humidity: 81%
Barometer: 1023 hPa
Clouds: Clear
Visibility: 10 km
2024/05/22 22:30 YBAS 222230Z AUTO 27004KT 9999 // NCD 05/02 Q1023 RF00.0/000.0
 
WATT - El Tari, Indonesia
Distance from station: N 878km
Updated: 23/05/2024 06:30
Few Clouds
Few Clouds
 Wind from ESE
Wind: ESE 9 km/h
Temperature: 27°C
Heat Index: 31°C
Dew Point: 25°C
Humidity: 89%
Barometer: 1012 hPa
Clouds: Few Clouds
Visibility: 10 km
Cloud details: Few Clouds 518 m
2024/05/22 22:30 WATT 222230Z 11005KT 9999 FEW017 27/25 Q1012 NOSIG
WADL - Bandara, Indonesia
Distance from station: NNW 1215km
Updated: 23/05/2024 06:30
Partly cloudy
Partly cloudy
 Wind from varies
Wind: varies 4 km/h
Temperature: 24°C
Dew Point: 24°C
Humidity: 100%
Barometer: 1010 hPa
Clouds: Partly cloudy
Visibility: 7 km
Cloud details: Partly cloudy 488 m
2024/05/22 22:30 WADL 222230Z VRB02KT 7000 SCT016 24/24 Q1010 NOSIG
WADD - Bali Intl, Indonesia
Distance from station: NW 1286km
Updated: 23/05/2024 06:30
Partly cloudy
Partly cloudy
 Wind from ESE
Wind: ESE 13 km/h
Temperature: 27°C
Heat Index: 31°C
Dew Point: 25°C
Humidity: 89%
Barometer: 1010 hPa
Clouds: Partly cloudy
Visibility: 10 km
Cloud details: Partly cloudy 518 m
2024/05/22 22:30 WADD 222230Z 12007KT 9999 SCT017 27/25 Q1010 NOSIG